sensor_id;sensor_type;location;lat;lon;timestamp;temperature;humidity
19200;DHT22;9732;52.498;5.408;2022-08-01T00:02:15;19.70;99.90
19200;DHT22;9732;52.498;5.408;2022-08-01T00:04:43;19.60;99.90
19200;DHT22;9732;52.498;5.408;2022-08-01T00:07:09;19.70;99.90
19200;DHT22;9732;52.498;5.408;2022-08-01T00:09:36;19.60;99.90
19200;DHT22;9732;52.498;5.408;2022-08-01T00:12:03;19.70;99.90
19200;DHT22;9732;52.498;5.408;2022-08-01T00:14:31;19.70;99.90
19200;DHT22;9732;52.498;5.408;2022-08-01T00:16:58;19.70;99.90
19200;DHT22;9732;52.498;5.408;2022-08-01T00:19:24;19.70;99.90
19200;DHT22;9732;52.498;5.408;2022-08-01T00:21:52;19.70;99.90
19200;DHT22;9732;52.498;5.408;2022-08-01T00:24:19;19.70;99.90
19200;DHT22;9732;52.498;5.408;2022-08-01T00:26:46;19.70;99.90
19200;DHT22;9732;52.498;5.408;2022-08-01T00:29:12;19.70;99.90
19200;DHT22;9732;52.498;5.408;2022-08-01T00:31:39;19.70;99.90
19200;DHT22;9732;52.498;5.408;2022-08-01T00:34:06;19.70;99.90
19200;DHT22;9732;52.498;5.408;2022-08-01T00:36:32;19.70;99.90
19200;DHT22;9732;52.498;5.408;2022-08-01T00:39:01;19.70;99.90
19200;DHT22;9732;52.498;5.408;2022-08-01T00:41:27;19.70;99.90
19200;DHT22;9732;52.498;5.408;2022-08-01T00:43:54;19.80;99.90
19200;DHT22;9732;52.498;5.408;2022-08-01T00:46:21;19.70;99.90
19200;DHT22;9732;52.498;5.408;2022-08-01T00:48:48;19.70;99.90
19200;DHT22;9732;52.498;5.408;2022-08-01T00:51:14;19.80;99.90
19200;DHT22;9732;52.498;5.408;2022-08-01T00:53:42;19.80;99.90
19200;DHT22;9732;52.498;5.408;2022-08-01T00:56:10;19.80;99.90
19200;DHT22;9732;52.498;5.408;2022-08-01T00:58:37;19.80;99.90
19200;DHT22;9732;52.498;5.408;2022-08-01T01:01:04;19.80;99.90
19200;DHT22;9732;52.498;5.408;2022-08-01T01:03:30;19.80;99.90
19200;DHT22;9732;52.498;5.408;2022-08-01T01:06:08;19.80;99.90
19200;DHT22;9732;52.498;5.408;2022-08-01T01:08:43;19.80;99.90
19200;DHT22;9732;52.498;5.408;2022-08-01T01:11:19;19.80;99.90
19200;DHT22;9732;52.498;5.408;2022-08-01T01:13:54;19.90;99.90
19200;DHT22;9732;52.498;5.408;2022-08-01T01:16:24;19.80;99.90
19200;DHT22;9732;52.498;5.408;2022-08-01T01:18:54;19.80;99.90
19200;DHT22;9732;52.498;5.408;2022-08-01T01:21:35;19.80;99.90
19200;DHT22;9732;52.498;5.408;2022-08-01T01:24:13;19.80;99.90
19200;DHT22;9732;52.498;5.408;2022-08-01T01:26:49;19.70;99.90
19200;DHT22;9732;52.498;5.408;2022-08-01T01:29:21;19.80;99.90
19200;DHT22;9732;52.498;5.408;2022-08-01T01:31:51;19.70;99.90
19200;DHT22;9732;52.498;5.408;2022-08-01T01:34:21;19.70;99.90
19200;DHT22;9732;52.498;5.408;2022-08-01T01:36:50;19.60;99.90
19200;DHT22;9732;52.498;5.408;2022-08-01T01:39:17;19.70;99.90
19200;DHT22;9732;52.498;5.408;2022-08-01T01:41:45;19.70;99.90
19200;DHT22;9732;52.498;5.408;2022-08-01T01:44:13;19.70;99.90
19200;DHT22;9732;52.498;5.408;2022-08-01T01:46:43;19.70;99.90
19200;DHT22;9732;52.498;5.408;2022-08-01T01:49:11;19.60;99.90
19200;DHT22;9732;52.498;5.408;2022-08-01T01:51:39;19.60;99.90
19200;DHT22;9732;52.498;5.408;2022-08-01T01:54:08;19.70;99.90
19200;DHT22;9732;52.498;5.408;2022-08-01T01:56:36;19.60;99.90
19200;DHT22;9732;52.498;5.408;2022-08-01T01:59:15;19.60;99.90
19200;DHT22;9732;52.498;5.408;2022-08-01T02:01:45;19.60;99.90
19200;DHT22;9732;52.498;5.408;2022-08-01T02:04:13;19.60;99.90
19200;DHT22;9732;52.498;5.408;2022-08-01T02:06:40;19.60;99.90
19200;DHT22;9732;52.498;5.408;2022-08-01T02:09:08;19.60;99.90
19200;DHT22;9732;52.498;5.408;2022-08-01T02:11:37;19.60;99.90
19200;DHT22;9732;52.498;5.408;2022-08-01T02:14:04;19.60;99.90
19200;DHT22;9732;52.498;5.408;2022-08-01T02:16:35;19.60;99.90
19200;DHT22;9732;52.498;5.408;2022-08-01T02:19:05;19.60;99.90
19200;DHT22;9732;52.498;5.408;2022-08-01T02:21:38;19.70;99.90
19200;DHT22;9732;52.498;5.408;2022-08-01T02:24:10;19.60;99.90
19200;DHT22;9732;52.498;5.408;2022-08-01T02:26:39;19.70;99.90
19200;DHT22;9732;52.498;5.408;2022-08-01T02:29:10;19.60;99.90
19200;DHT22;9732;52.498;5.408;2022-08-01T02:31:41;19.60;99.90
19200;DHT22;9732;52.498;5.408;2022-08-01T02:34:14;19.70;99.90
19200;DHT22;9732;52.498;5.408;2022-08-01T02:36:44;19.60;99.90
19200;DHT22;9732;52.498;5.408;2022-08-01T02:39:15;19.60;99.90
19200;DHT22;9732;52.498;5.408;2022-08-01T02:41:46;19.60;99.90
19200;DHT22;9732;52.498;5.408;2022-08-01T02:44:16;19.50;99.90
19200;DHT22;9732;52.498;5.408;2022-08-01T02:46:49;19.40;99.90
19200;DHT22;9732;52.498;5.408;2022-08-01T02:49:18;19.30;99.90
19200;DHT22;9732;52.498;5.408;2022-08-01T02:51:47;19.30;99.90
19200;DHT22;9732;52.498;5.408;2022-08-01T02:54:15;19.20;99.90
19200;DHT22;9732;52.498;5.408;2022-08-01T02:56:44;19.10;99.90
19200;DHT22;9732;52.498;5.408;2022-08-01T02:59:14;19.00;99.90
19200;DHT22;9732;52.498;5.408;2022-08-01T03:01:43;19.00;99.90
19200;DHT22;9732;52.498;5.408;2022-08-01T03:04:11;18.90;99.90
19200;DHT22;9732;52.498;5.408;2022-08-01T03:06:39;19.00;99.90
19200;DHT22;9732;52.498;5.408;2022-08-01T03:09:07;18.90;99.90
19200;DHT22;9732;52.498;5.408;2022-08-01T03:11:36;18.90;99.90
19200;DHT22;9732;52.498;5.408;2022-08-01T03:14:07;18.90;99.90
19200;DHT22;9732;52.498;5.408;2022-08-01T03:16:35;18.90;99.90
19200;DHT22;9732;52.498;5.408;2022-08-01T03:19:04;19.00;99.90
19200;DHT22;9732;52.498;5.408;2022-08-01T03:21:34;19.00;99.90
19200;DHT22;9732;52.498;5.408;2022-08-01T03:24:05;18.90;99.90
19200;DHT22;9732;52.498;5.408;2022-08-01T03:26:35;18.90;99.90
19200;DHT22;9732;52.498;5.408;2022-08-01T03:29:05;18.90;99.90
19200;DHT22;9732;52.498;5.408;2022-08-01T03:31:34;18.90;99.90
19200;DHT22;9732;52.498;5.408;2022-08-01T03:34:02;18.90;99.90
19200;DHT22;9732;52.498;5.408;2022-08-01T03:36:30;18.90;99.90
19200;DHT22;9732;52.498;5.408;2022-08-01T03:39:01;18.90;99.90
19200;DHT22;9732;52.498;5.408;2022-08-01T03:41:33;18.90;99.90
19200;DHT22;9732;52.498;5.408;2022-08-01T03:44:10;18.90;99.90
19200;DHT22;9732;52.498;5.408;2022-08-01T03:46:42;18.90;99.90
19200;DHT22;9732;52.498;5.408;2022-08-01T03:49:13;18.90;99.90
19200;DHT22;9732;52.498;5.408;2022-08-01T03:51:40;18.90;99.90
19200;DHT22;9732;52.498;5.408;2022-08-01T03:54:08;19.00;99.90
19200;DHT22;9732;52.498;5.408;2022-08-01T03:56:38;18.90;99.90
19200;DHT22;9732;52.498;5.408;2022-08-01T03:59:07;18.90;99.90
19200;DHT22;9732;52.498;5.408;2022-08-01T04:01:36;18.90;99.90
19200;DHT22;9732;52.498;5.408;2022-08-01T04:04:03;18.90;99.90
19200;DHT22;9732;52.498;5.408;2022-08-01T04:06:31;18.90;99.90
19200;DHT22;9732;52.498;5.408;2022-08-01T04:08:58;18.90;99.90
19200;DHT22;9732;52.498;5.408;2022-08-01T04:11:26;18.80;99.90
19200;DHT22;9732;52.498;5.408;2022-08-01T04:13:55;18.90;99.90
19200;DHT22;9732;52.498;5.408;2022-08-01T04:16:22;18.90;99.90
19200;DHT22;9732;52.498;5.408;2022-08-01T04:18:49;18.90;99.90
19200;DHT22;9732;52.498;5.408;2022-08-01T04:21:20;18.90;99.90
19200;DHT22;9732;52.498;5.408;2022-08-01T04:23:49;18.90;99.90
19200;DHT22;9732;52.498;5.408;2022-08-01T04:26:18;18.90;99.90
19200;DHT22;9732;52.498;5.408;2022-08-01T04:28:47;18.90;99.90
19200;DHT22;9732;52.498;5.408;2022-08-01T04:31:17;18.90;99.90
19200;DHT22;9732;52.498;5.408;2022-08-01T04:33:49;18.90;99.90
19200;DHT22;9732;52.498;5.408;2022-08-01T04:36:19;18.90;99.90
19200;DHT22;9732;52.498;5.408;2022-08-01T04:38:49;19.00;99.90
19200;DHT22;9732;52.498;5.408;2022-08-01T04:41:17;19.00;99.90
19200;DHT22;9732;52.498;5.408;2022-08-01T04:43:45;19.00;99.90
19200;DHT22;9732;52.498;5.408;2022-08-01T04:46:13;19.00;99.90
19200;DHT22;9732;52.498;5.408;2022-08-01T04:48:42;18.90;99.90
19200;DHT22;9732;52.498;5.408;2022-08-01T04:51:13;18.90;99.90
19200;DHT22;9732;52.498;5.408;2022-08-01T04:53:41;18.90;99.90
19200;DHT22;9732;52.498;5.408;2022-08-01T04:56:08;19.00;99.90
19200;DHT22;9732;52.498;5.408;2022-08-01T04:58:38;18.90;99.90
19200;DHT22;9732;52.498;5.408;2022-08-01T05:01:05;18.90;99.90
19200;DHT22;9732;52.498;5.408;2022-08-01T05:03:31;18.90;99.90
19200;DHT22;9732;52.498;5.408;2022-08-01T05:06:00;18.80;99.90
19200;DHT22;9732;52.498;5.408;2022-08-01T05:08:27;18.90;99.90
19200;DHT22;9732;52.498;5.408;2022-08-01T05:10:53;18.80;99.90
19200;DHT22;9732;52.498;5.408;2022-08-01T05:13:20;18.90;99.90
19200;DHT22;9732;52.498;5.408;2022-08-01T05:15:47;18.80;99.90
19200;DHT22;9732;52.498;5.408;2022-08-01T05:18:14;18.90;99.90
19200;DHT22;9732;52.498;5.408;2022-08-01T05:20:41;18.80;99.90
19200;DHT22;9732;52.498;5.408;2022-08-01T05:23:09;18.90;99.90
19200;DHT22;9732;52.498;5.408;2022-08-01T05:25:36;18.80;99.90
19200;DHT22;9732;52.498;5.408;2022-08-01T05:28:04;18.90;99.90
19200;DHT22;9732;52.498;5.408;2022-08-01T05:30:31;18.90;99.90
19200;DHT22;9732;52.498;5.408;2022-08-01T05:32:57;18.90;99.90
19200;DHT22;9732;52.498;5.408;2022-08-01T05:35:24;18.90;99.90
19200;DHT22;9732;52.498;5.408;2022-08-01T05:37:51;18.90;99.90
19200;DHT22;9732;52.498;5.408;2022-08-01T05:40:19;19.00;99.90
19200;DHT22;9732;52.498;5.408;2022-08-01T05:42:45;19.00;99.90
19200;DHT22;9732;52.498;5.408;2022-08-01T05:45:12;19.00;99.90
19200;DHT22;9732;52.498;5.408;2022-08-01T05:47:39;19.10;99.90
19200;DHT22;9732;52.498;5.408;2022-08-01T05:50:06;19.10;99.90
19200;DHT22;9732;52.498;5.408;2022-08-01T05:52:34;19.10;99.90
19200;DHT22;9732;52.498;5.408;2022-08-01T05:55:01;19.10;99.90
19200;DHT22;9732;52.498;5.408;2022-08-01T05:57:29;19.10;99.90
19200;DHT22;9732;52.498;5.408;2022-08-01T05:59:55;19.00;99.90
19200;DHT22;9732;52.498;5.408;2022-08-01T06:02:22;19.00;99.90
19200;DHT22;9732;52.498;5.408;2022-08-01T06:04:49;18.90;99.90
19200;DHT22;9732;52.498;5.408;2022-08-01T06:07:15;18.90;99.90
19200;DHT22;9732;52.498;5.408;2022-08-01T06:09:42;19.00;99.90
19200;DHT22;9732;52.498;5.408;2022-08-01T06:12:09;19.00;99.90
19200;DHT22;9732;52.498;5.408;2022-08-01T06:14:37;19.00;99.90
19200;DHT22;9732;52.498;5.408;2022-08-01T06:17:04;19.10;99.90
19200;DHT22;9732;52.498;5.408;2022-08-01T06:19:30;19.10;99.90
19200;DHT22;9732;52.498;5.408;2022-08-01T06:21:57;19.20;99.90
19200;DHT22;9732;52.498;5.408;2022-08-01T06:24:24;19.20;99.90
19200;DHT22;9732;52.498;5.408;2022-08-01T06:26:50;19.20;99.90
19200;DHT22;9732;52.498;5.408;2022-08-01T06:29:17;19.30;99.90
19200;DHT22;9732;52.498;5.408;2022-08-01T06:31:45;19.30;99.90
19200;DHT22;9732;52.498;5.408;2022-08-01T06:34:12;19.30;99.90
19200;DHT22;9732;52.498;5.408;2022-08-01T06:36:40;19.20;99.90
19200;DHT22;9732;52.498;5.408;2022-08-01T06:39:07;19.10;99.90
19200;DHT22;9732;52.498;5.408;2022-08-01T06:41:34;19.00;99.90
19200;DHT22;9732;52.498;5.408;2022-08-01T06:44:00;19.00;99.90
19200;DHT22;9732;52.498;5.408;2022-08-01T06:46:29;19.00;99.90
19200;DHT22;9732;52.498;5.408;2022-08-01T06:48:57;19.00;99.90
19200;DHT22;9732;52.498;5.408;2022-08-01T06:51:24;19.00;99.90
19200;DHT22;9732;52.498;5.408;2022-08-01T06:53:51;19.00;99.90
19200;DHT22;9732;52.498;5.408;2022-08-01T06:56:19;18.90;99.90
19200;DHT22;9732;52.498;5.408;2022-08-01T06:58:45;18.90;99.90
19200;DHT22;9732;52.498;5.408;2022-08-01T07:01:12;19.00;99.90
19200;DHT22;9732;52.498;5.408;2022-08-01T07:03:40;18.90;99.90
19200;DHT22;9732;52.498;5.408;2022-08-01T07:06:08;19.00;99.90
19200;DHT22;9732;52.498;5.408;2022-08-01T07:08:36;19.10;99.90
19200;DHT22;9732;52.498;5.408;2022-08-01T07:11:02;19.10;99.90
19200;DHT22;9732;52.498;5.408;2022-08-01T07:13:29;19.10;99.90
19200;DHT22;9732;52.498;5.408;2022-08-01T07:15:57;19.10;99.90
19200;DHT22;9732;52.498;5.408;2022-08-01T07:18:24;19.20;99.90
19200;DHT22;9732;52.498;5.408;2022-08-01T07:20:51;19.20;99.90
19200;DHT22;9732;52.498;5.408;2022-08-01T07:23:19;19.20;99.90
19200;DHT22;9732;52.498;5.408;2022-08-01T07:25:46;19.20;99.90
19200;DHT22;9732;52.498;5.408;2022-08-01T07:28:14;19.20;99.90
19200;DHT22;9732;52.498;5.408;2022-08-01T07:30:41;19.20;99.90
19200;DHT22;9732;52.498;5.408;2022-08-01T07:33:10;19.30;99.90
19200;DHT22;9732;52.498;5.408;2022-08-01T07:35:37;19.30;99.90
19200;DHT22;9732;52.498;5.408;2022-08-01T07:38:04;19.30;99.90
19200;DHT22;9732;52.498;5.408;2022-08-01T07:40:33;19.40;99.90
19200;DHT22;9732;52.498;5.408;2022-08-01T07:43:00;19.40;99.90
19200;DHT22;9732;52.498;5.408;2022-08-01T07:45:26;19.50;99.90
19200;DHT22;9732;52.498;5.408;2022-08-01T07:47:53;19.60;99.90
19200;DHT22;9732;52.498;5.408;2022-08-01T07:50:20;19.70;99.90
19200;DHT22;9732;52.498;5.408;2022-08-01T07:52:47;19.70;99.90
19200;DHT22;9732;52.498;5.408;2022-08-01T07:55:13;19.80;99.90
19200;DHT22;9732;52.498;5.408;2022-08-01T07:57:41;20.00;99.90
19200;DHT22;9732;52.498;5.408;2022-08-01T08:00:09;20.00;99.90
19200;DHT22;9732;52.498;5.408;2022-08-01T08:02:36;20.00;99.90
19200;DHT22;9732;52.498;5.408;2022-08-01T08:05:03;20.00;99.90
19200;DHT22;9732;52.498;5.408;2022-08-01T08:07:30;19.90;99.90
19200;DHT22;9732;52.498;5.408;2022-08-01T08:09:57;20.00;99.90
19200;DHT22;9732;52.498;5.408;2022-08-01T08:12:24;20.00;99.90
19200;DHT22;9732;52.498;5.408;2022-08-01T08:14:52;20.00;99.90
19200;DHT22;9732;52.498;5.408;2022-08-01T08:17:18;20.10;99.90
19200;DHT22;9732;52.498;5.408;2022-08-01T08:19:45;20.20;99.90
19200;DHT22;9732;52.498;5.408;2022-08-01T08:22:12;20.30;99.90
19200;DHT22;9732;52.498;5.408;2022-08-01T08:24:38;20.30;99.90
19200;DHT22;9732;52.498;5.408;2022-08-01T08:27:05;20.40;99.90
19200;DHT22;9732;52.498;5.408;2022-08-01T08:29:33;20.50;99.90
19200;DHT22;9732;52.498;5.408;2022-08-01T08:32:02;20.50;99.90
19200;DHT22;9732;52.498;5.408;2022-08-01T08:34:29;20.60;99.90
19200;DHT22;9732;52.498;5.408;2022-08-01T08:36:56;20.80;99.90
19200;DHT22;9732;52.498;5.408;2022-08-01T08:39:23;20.90;99.90
19200;DHT22;9732;52.498;5.408;2022-08-01T08:41:50;21.10;99.90
19200;DHT22;9732;52.498;5.408;2022-08-01T08:44:18;21.10;99.90
19200;DHT22;9732;52.498;5.408;2022-08-01T08:46:47;21.10;99.90
19200;DHT22;9732;52.498;5.408;2022-08-01T08:49:18;21.10;99.90
19200;DHT22;9732;52.498;5.408;2022-08-01T08:51:47;21.20;99.90
19200;DHT22;9732;52.498;5.408;2022-08-01T08:54:16;21.20;99.90
19200;DHT22;9732;52.498;5.408;2022-08-01T08:56:43;21.20;99.90
19200;DHT22;9732;52.498;5.408;2022-08-01T08:59:11;21.20;99.90
19200;DHT22;9732;52.498;5.408;2022-08-01T09:01:40;21.30;99.90
19200;DHT22;9732;52.498;5.408;2022-08-01T09:04:07;21.40;99.90
19200;DHT22;9732;52.498;5.408;2022-08-01T09:06:35;21.50;99.90
19200;DHT22;9732;52.498;5.408;2022-08-01T09:09:02;21.50;99.90
19200;DHT22;9732;52.498;5.408;2022-08-01T09:11:29;21.50;99.90
19200;DHT22;9732;52.498;5.408;2022-08-01T09:14:05;21.50;99.90
19200;DHT22;9732;52.498;5.408;2022-08-01T09:16:32;21.40;99.90
19200;DHT22;9732;52.498;5.408;2022-08-01T09:19:12;21.50;99.90
19200;DHT22;9732;52.498;5.408;2022-08-01T09:21:54;21.50;99.90
19200;DHT22;9732;52.498;5.408;2022-08-01T09:24:21;21.50;99.90
19200;DHT22;9732;52.498;5.408;2022-08-01T09:26:48;21.50;99.90
19200;DHT22;9732;52.498;5.408;2022-08-01T09:29:20;21.60;99.90
19200;DHT22;9732;52.498;5.408;2022-08-01T09:31:47;21.80;99.90
19200;DHT22;9732;52.498;5.408;2022-08-01T09:34:15;22.00;99.90
19200;DHT22;9732;52.498;5.408;2022-08-01T09:36:51;22.10;99.90
19200;DHT22;9732;52.498;5.408;2022-08-01T09:39:20;22.20;99.90
19200;DHT22;9732;52.498;5.408;2022-08-01T09:41:47;22.50;99.90
19200;DHT22;9732;52.498;5.408;2022-08-01T09:44:16;22.50;99.90
19200;DHT22;9732;52.498;5.408;2022-08-01T09:46:51;22.70;99.90
19200;DHT22;9732;52.498;5.408;2022-08-01T09:49:30;22.70;99.90
19200;DHT22;9732;52.498;5.408;2022-08-01T09:51:59;23.00;99.90
19200;DHT22;9732;52.498;5.408;2022-08-01T09:54:30;23.10;99.90
19200;DHT22;9732;52.498;5.408;2022-08-01T09:57:11;23.20;99.90
19200;DHT22;9732;52.498;5.408;2022-08-01T09:59:40;23.40;99.90
19200;DHT22;9732;52.498;5.408;2022-08-01T10:02:09;23.40;99.90
19200;DHT22;9732;52.498;5.408;2022-08-01T10:04:46;23.60;99.90
19200;DHT22;9732;52.498;5.408;2022-08-01T10:07:14;23.70;99.90
19200;DHT22;9732;52.498;5.408;2022-08-01T10:09:42;23.70;99.90
19200;DHT22;9732;52.498;5.408;2022-08-01T10:12:11;23.90;99.90
19200;DHT22;9732;52.498;5.408;2022-08-01T10:14:39;23.90;99.90
19200;DHT22;9732;52.498;5.408;2022-08-01T10:17:08;24.00;99.90
19200;DHT22;9732;52.498;5.408;2022-08-01T10:19:35;24.10;99.90
19200;DHT22;9732;52.498;5.408;2022-08-01T10:22:07;23.90;99.90
19200;DHT22;9732;52.498;5.408;2022-08-01T10:24:37;23.90;99.90
19200;DHT22;9732;52.498;5.408;2022-08-01T10:27:05;23.90;99.90
19200;DHT22;9732;52.498;5.408;2022-08-01T10:29:36;23.90;99.90
19200;DHT22;9732;52.498;5.408;2022-08-01T10:32:05;24.10;99.90
19200;DHT22;9732;52.498;5.408;2022-08-01T10:34:35;24.20;99.90
19200;DHT22;9732;52.498;5.408;2022-08-01T10:37:02;24.10;99.90
19200;DHT22;9732;52.498;5.408;2022-08-01T10:39:30;24.30;99.90
19200;DHT22;9732;52.498;5.408;2022-08-01T10:41:58;24.40;99.90
19200;DHT22;9732;52.498;5.408;2022-08-01T10:44:27;24.50;99.90
19200;DHT22;9732;52.498;5.408;2022-08-01T10:46:59;24.60;99.90
19200;DHT22;9732;52.498;5.408;2022-08-01T10:49:30;24.70;99.90
19200;DHT22;9732;52.498;5.408;2022-08-01T10:52:02;24.90;99.90
19200;DHT22;9732;52.498;5.408;2022-08-01T10:54:29;24.90;99.90
19200;DHT22;9732;52.498;5.408;2022-08-01T10:57:05;24.70;99.90
19200;DHT22;9732;52.498;5.408;2022-08-01T10:59:32;24.70;99.90
19200;DHT22;9732;52.498;5.408;2022-08-01T11:02:02;24.60;99.90
19200;DHT22;9732;52.498;5.408;2022-08-01T11:04:33;24.60;99.90
19200;DHT22;9732;52.498;5.408;2022-08-01T11:07:04;24.90;99.90
19200;DHT22;9732;52.498;5.408;2022-08-01T11:09:38;25.00;99.90
19200;DHT22;9732;52.498;5.408;2022-08-01T11:12:09;25.20;99.90
19200;DHT22;9732;52.498;5.408;2022-08-01T11:17:36;25.50;99.90
19200;DHT22;9732;52.498;5.408;2022-08-01T11:20:05;25.70;99.90
19200;DHT22;9732;52.498;5.408;2022-08-01T11:26:11;26.00;99.90
19200;DHT22;9732;52.498;5.408;2022-08-01T11:28:40;26.10;99.90
19200;DHT22;9732;52.498;5.408;2022-08-01T11:31:31;26.10;99.90
19200;DHT22;9732;52.498;5.408;2022-08-01T11:33:58;26.20;99.90
19200;DHT22;9732;52.498;5.408;2022-08-01T11:36:26;26.10;99.90
19200;DHT22;9732;52.498;5.408;2022-08-01T11:39:15;26.10;99.90
19200;DHT22;9732;52.498;5.408;2022-08-01T11:41:44;26.10;99.90
19200;DHT22;9732;52.498;5.408;2022-08-01T11:44:18;26.20;99.90
19200;DHT22;9732;52.498;5.408;2022-08-01T11:46:46;26.00;99.90
19200;DHT22;9732;52.498;5.408;2022-08-01T11:49:31;26.10;99.90
19200;DHT22;9732;52.498;5.408;2022-08-01T11:52:06;25.80;99.90
19200;DHT22;9732;52.498;5.408;2022-08-01T11:54:36;25.80;99.90
19200;DHT22;9732;52.498;5.408;2022-08-01T11:57:06;25.80;99.90
19200;DHT22;9732;52.498;5.408;2022-08-01T11:59:39;25.80;99.90
19200;DHT22;9732;52.498;5.408;2022-08-01T12:02:19;25.80;99.90
19200;DHT22;9732;52.498;5.408;2022-08-01T12:04:48;25.70;99.90
19200;DHT22;9732;52.498;5.408;2022-08-01T12:07:16;26.10;99.90
19200;DHT22;9732;52.498;5.408;2022-08-01T12:09:43;26.30;99.90
19200;DHT22;9732;52.498;5.408;2022-08-01T12:12:10;26.40;99.90
19200;DHT22;9732;52.498;5.408;2022-08-01T12:14:38;26.20;99.90
19200;DHT22;9732;52.498;5.408;2022-08-01T12:17:05;26.20;99.90
19200;DHT22;9732;52.498;5.408;2022-08-01T12:19:32;26.30;99.90
19200;DHT22;9732;52.498;5.408;2022-08-01T12:22:10;26.20;99.90
19200;DHT22;9732;52.498;5.408;2022-08-01T12:24:39;26.00;99.90
19200;DHT22;9732;52.498;5.408;2022-08-01T12:27:07;25.90;99.90
19200;DHT22;9732;52.498;5.408;2022-08-01T12:29:36;25.80;99.90
19200;DHT22;9732;52.498;5.408;2022-08-01T12:32:20;25.70;99.90
19200;DHT22;9732;52.498;5.408;2022-08-01T12:34:47;25.80;99.90
19200;DHT22;9732;52.498;5.408;2022-08-01T12:37:14;26.00;99.90
19200;DHT22;9732;52.498;5.408;2022-08-01T12:39:41;26.10;99.90
19200;DHT22;9732;52.498;5.408;2022-08-01T12:42:08;26.10;99.90
19200;DHT22;9732;52.498;5.408;2022-08-01T12:44:36;26.10;99.90
19200;DHT22;9732;52.498;5.408;2022-08-01T12:47:06;26.10;99.90
19200;DHT22;9732;52.498;5.408;2022-08-01T12:49:33;26.30;99.90
19200;DHT22;9732;52.498;5.408;2022-08-01T12:52:02;26.40;99.90
19200;DHT22;9732;52.498;5.408;2022-08-01T12:54:29;26.20;99.90
19200;DHT22;9732;52.498;5.408;2022-08-01T12:56:56;26.30;99.90
19200;DHT22;9732;52.498;5.408;2022-08-01T12:59:25;26.20;99.90
19200;DHT22;9732;52.498;5.408;2022-08-01T13:01:52;26.20;99.90
19200;DHT22;9732;52.498;5.408;2022-08-01T13:04:21;25.90;99.90
19200;DHT22;9732;52.498;5.408;2022-08-01T13:06:52;25.80;99.90
19200;DHT22;9732;52.498;5.408;2022-08-01T13:09:20;25.80;99.90
19200;DHT22;9732;52.498;5.408;2022-08-01T13:11:46;26.00;99.90
19200;DHT22;9732;52.498;5.408;2022-08-01T13:14:26;26.10;99.90
19200;DHT22;9732;52.498;5.408;2022-08-01T13:16:53;26.50;99.90
19200;DHT22;9732;52.498;5.408;2022-08-01T13:19:41;26.50;99.90
19200;DHT22;9732;52.498;5.408;2022-08-01T13:22:08;26.60;99.90
19200;DHT22;9732;52.498;5.408;2022-08-01T13:24:35;26.60;99.90
19200;DHT22;9732;52.498;5.408;2022-08-01T13:27:03;26.60;99.90
19200;DHT22;9732;52.498;5.408;2022-08-01T13:29:32;26.70;99.90
19200;DHT22;9732;52.498;5.408;2022-08-01T13:31:59;26.50;99.90
19200;DHT22;9732;52.498;5.408;2022-08-01T13:34:32;26.50;99.90
19200;DHT22;9732;52.498;5.408;2022-08-01T13:36:59;26.60;99.90
19200;DHT22;9732;52.498;5.408;2022-08-01T13:39:27;26.60;99.90
19200;DHT22;9732;52.498;5.408;2022-08-01T13:42:12;26.80;99.90
19200;DHT22;9732;52.498;5.408;2022-08-01T13:44:39;26.80;99.90
19200;DHT22;9732;52.498;5.408;2022-08-01T13:47:06;27.00;99.90
19200;DHT22;9732;52.498;5.408;2022-08-01T13:49:35;27.00;99.90
19200;DHT22;9732;52.498;5.408;2022-08-01T13:52:02;27.00;99.90
19200;DHT22;9732;52.498;5.408;2022-08-01T13:54:29;27.00;99.90
19200;DHT22;9732;52.498;5.408;2022-08-01T13:56:57;27.10;99.90
19200;DHT22;9732;52.498;5.408;2022-08-01T13:59:23;27.10;99.90
19200;DHT22;9732;52.498;5.408;2022-08-01T14:01:50;27.10;99.90
19200;DHT22;9732;52.498;5.408;2022-08-01T14:04:17;27.00;99.90
19200;DHT22;9732;52.498;5.408;2022-08-01T14:06:45;26.90;99.90
19200;DHT22;9732;52.498;5.408;2022-08-01T14:09:13;26.90;99.90
19200;DHT22;9732;52.498;5.408;2022-08-01T14:11:42;26.90;99.90
19200;DHT22;9732;52.498;5.408;2022-08-01T14:14:08;26.90;99.90
19200;DHT22;9732;52.498;5.408;2022-08-01T14:16:35;27.10;99.90
19200;DHT22;9732;52.498;5.408;2022-08-01T14:19:02;27.30;99.90
19200;DHT22;9732;52.498;5.408;2022-08-01T14:21:29;27.60;99.90
19200;DHT22;9732;52.498;5.408;2022-08-01T14:23:58;28.00;99.90
19200;DHT22;9732;52.498;5.408;2022-08-01T14:26:24;28.30;99.90
19200;DHT22;9732;52.498;5.408;2022-08-01T14:28:51;28.30;99.90
19200;DHT22;9732;52.498;5.408;2022-08-01T14:31:18;28.40;99.90
19200;DHT22;9732;52.498;5.408;2022-08-01T14:33:44;28.50;99.90
19200;DHT22;9732;52.498;5.408;2022-08-01T14:36:11;28.20;99.90
19200;DHT22;9732;52.498;5.408;2022-08-01T14:38:38;28.20;98.90
19200;DHT22;9732;52.498;5.408;2022-08-01T14:41:06;28.30;98.60
19200;DHT22;9732;52.498;5.408;2022-08-01T14:43:33;28.50;99.20
19200;DHT22;9732;52.498;5.408;2022-08-01T14:46:01;28.20;94.90
19200;DHT22;9732;52.498;5.408;2022-08-01T14:48:29;28.10;96.80
19200;DHT22;9732;52.498;5.408;2022-08-01T14:50:56;28.00;98.10
19200;DHT22;9732;52.498;5.408;2022-08-01T14:53:22;27.80;98.00
19200;DHT22;9732;52.498;5.408;2022-08-01T14:55:50;27.30;97.50
19200;DHT22;9732;52.498;5.408;2022-08-01T14:58:18;26.70;97.70
19200;DHT22;9732;52.498;5.408;2022-08-01T15:00:45;26.50;98.30
19200;DHT22;9732;52.498;5.408;2022-08-01T15:03:12;26.20;97.60
19200;DHT22;9732;52.498;5.408;2022-08-01T15:05:39;26.10;98.90
19200;DHT22;9732;52.498;5.408;2022-08-01T15:08:06;25.90;99.50
19200;DHT22;9732;52.498;5.408;2022-08-01T15:10:33;25.80;99.90
19200;DHT22;9732;52.498;5.408;2022-08-01T15:13:02;25.70;99.90
19200;DHT22;9732;52.498;5.408;2022-08-01T15:15:30;25.50;99.90
19200;DHT22;9732;52.498;5.408;2022-08-01T15:17:57;25.10;99.90
19200;DHT22;9732;52.498;5.408;2022-08-01T15:20:24;24.80;99.90
19200;DHT22;9732;52.498;5.408;2022-08-01T15:22:52;24.40;99.90
19200;DHT22;9732;52.498;5.408;2022-08-01T15:25:19;24.20;99.90
19200;DHT22;9732;52.498;5.408;2022-08-01T15:27:46;23.90;99.90
19200;DHT22;9732;52.498;5.408;2022-08-01T15:30:13;23.80;99.90
19200;DHT22;9732;52.498;5.408;2022-08-01T15:32:41;23.60;99.90
19200;DHT22;9732;52.498;5.408;2022-08-01T15:35:09;23.50;99.90
19200;DHT22;9732;52.498;5.408;2022-08-01T15:37:36;23.30;99.90
19200;DHT22;9732;52.498;5.408;2022-08-01T15:40:04;23.00;99.90
19200;DHT22;9732;52.498;5.408;2022-08-01T15:42:31;22.80;99.90
19200;DHT22;9732;52.498;5.408;2022-08-01T15:44:58;22.80;99.90
19200;DHT22;9732;52.498;5.408;2022-08-01T15:47:24;22.60;99.90
19200;DHT22;9732;52.498;5.408;2022-08-01T15:49:52;22.60;99.90
19200;DHT22;9732;52.498;5.408;2022-08-01T15:52:21;22.50;99.90
19200;DHT22;9732;52.498;5.408;2022-08-01T15:54:47;22.50;99.90
19200;DHT22;9732;52.498;5.408;2022-08-01T15:57:14;22.40;99.90
19200;DHT22;9732;52.498;5.408;2022-08-01T15:59:41;22.30;99.90
19200;DHT22;9732;52.498;5.408;2022-08-01T16:02:07;22.40;99.90